sensor_id;sensor_type;location;lat;lon;timestamp;P1;durP1;ratioP1;P2;durP2;ratioP2
55813;SDS011;65494;42.818;0.404;2023-08-07T00:00:47;7.38;;;1.50;;
55813;SDS011;65494;42.818;0.404;2023-08-07T00:03:13;6.93;;;1.20;;
55813;SDS011;65494;42.818;0.404;2023-08-07T00:05:47;8.45;;;1.33;;
55813;SDS011;65494;42.818;0.404;2023-08-07T00:08:13;8.27;;;1.52;;
55813;SDS011;65494;42.818;0.404;2023-08-07T00:10:39;9.00;;;1.67;;
55813;SDS011;65494;42.818;0.404;2023-08-07T00:13:05;5.53;;;1.35;;
55813;SDS011;65494;42.818;0.404;2023-08-07T00:15:32;9.15;;;1.50;;
55813;SDS011;65494;42.818;0.404;2023-08-07T00:18:01;6.28;;;1.25;;
55813;SDS011;65494;42.818;0.404;2023-08-07T00:20:27;4.75;;;1.20;;
55813;SDS011;65494;42.818;0.404;2023-08-07T00:22:53;5.15;;;1.23;;
55813;SDS011;65494;42.818;0.404;2023-08-07T00:25:19;7.10;;;1.08;;
55813;SDS011;65494;42.818;0.404;2023-08-07T00:27:45;12.25;;;1.70;;
55813;SDS011;65494;42.818;0.404;2023-08-07T00:30:11;4.53;;;1.50;;
55813;SDS011;65494;42.818;0.404;2023-08-07T00:32:37;6.75;;;1.20;;
55813;SDS011;65494;42.818;0.404;2023-08-07T00:35:04;10.88;;;2.15;;
55813;SDS011;65494;42.818;0.404;2023-08-07T00:37:30;10.65;;;1.70;;
55813;SDS011;65494;42.818;0.404;2023-08-07T00:39:56;5.85;;;1.30;;
55813;SDS011;65494;42.818;0.404;2023-08-07T00:42:22;7.32;;;1.33;;
55813;SDS011;65494;42.818;0.404;2023-08-07T00:44:49;7.28;;;1.73;;
55813;SDS011;65494;42.818;0.404;2023-08-07T00:47:15;8.77;;;1.67;;
55813;SDS011;65494;42.818;0.404;2023-08-07T00:49:41;8.18;;;1.80;;
55813;SDS011;65494;42.818;0.404;2023-08-07T00:52:07;9.38;;;1.40;;
55813;SDS011;65494;42.818;0.404;2023-08-07T00:54:33;7.35;;;1.50;;
55813;SDS011;65494;42.818;0.404;2023-08-07T00:57:11;6.68;;;1.65;;
55813;SDS011;65494;42.818;0.404;2023-08-07T00:59:38;6.93;;;1.70;;
55813;SDS011;65494;42.818;0.404;2023-08-07T01:02:04;5.78;;;1.63;;
55813;SDS011;65494;42.818;0.404;2023-08-07T01:04:30;7.07;;;1.45;;
55813;SDS011;65494;42.818;0.404;2023-08-07T01:06:57;5.32;;;1.55;;
55813;SDS011;65494;42.818;0.404;2023-08-07T01:09:23;7.53;;;1.50;;
55813;SDS011;65494;42.818;0.404;2023-08-07T01:17:48;6.40;;;1.20;;
55813;SDS011;65494;42.818;0.404;2023-08-07T01:20:15;5.60;;;1.40;;
55813;SDS011;65494;42.818;0.404;2023-08-07T01:22:41;5.22;;;1.48;;
55813;SDS011;65494;42.818;0.404;2023-08-07T01:25:07;4.25;;;1.27;;
55813;SDS011;65494;42.818;0.404;2023-08-07T01:27:38;6.35;;;1.80;;
55813;SDS011;65494;42.818;0.404;2023-08-07T01:30:18;7.38;;;2.08;;
55813;SDS011;65494;42.818;0.404;2023-08-07T01:35:16;8.00;;;1.65;;
55813;SDS011;65494;42.818;0.404;2023-08-07T01:37:42;5.55;;;1.40;;
55813;SDS011;65494;42.818;0.404;2023-08-07T01:40:10;5.97;;;1.58;;
55813;SDS011;65494;42.818;0.404;2023-08-07T01:42:37;4.43;;;1.40;;
55813;SDS011;65494;42.818;0.404;2023-08-07T01:45:04;5.57;;;1.90;;
55813;SDS011;65494;42.818;0.404;2023-08-07T01:47:30;6.05;;;1.30;;
55813;SDS011;65494;42.818;0.404;2023-08-07T01:49:56;6.53;;;1.48;;
55813;SDS011;65494;42.818;0.404;2023-08-07T01:52:22;8.05;;;1.30;;
55813;SDS011;65494;42.818;0.404;2023-08-07T01:54:48;3.80;;;1.20;;
55813;SDS011;65494;42.818;0.404;2023-08-07T01:57:14;8.20;;;1.65;;
55813;SDS011;65494;42.818;0.404;2023-08-07T01:59:40;8.07;;;2.05;;
55813;SDS011;65494;42.818;0.404;2023-08-07T02:02:08;7.35;;;1.38;;
55813;SDS011;65494;42.818;0.404;2023-08-07T02:04:34;9.88;;;1.77;;
55813;SDS011;65494;42.818;0.404;2023-08-07T02:07:00;8.18;;;2.03;;
55813;SDS011;65494;42.818;0.404;2023-08-07T02:09:26;5.60;;;1.25;;
55813;SDS011;65494;42.818;0.404;2023-08-07T02:11:52;9.75;;;1.42;;
55813;SDS011;65494;42.818;0.404;2023-08-07T02:14:18;6.93;;;1.52;;
55813;SDS011;65494;42.818;0.404;2023-08-07T02:16:45;6.80;;;1.50;;
55813;SDS011;65494;42.818;0.404;2023-08-07T02:19:11;8.05;;;1.50;;
55813;SDS011;65494;42.818;0.404;2023-08-07T02:21:37;8.85;;;1.33;;
55813;SDS011;65494;42.818;0.404;2023-08-07T02:24:03;9.20;;;2.13;;
55813;SDS011;65494;42.818;0.404;2023-08-07T02:26:29;4.07;;;1.05;;
55813;SDS011;65494;42.818;0.404;2023-08-07T02:28:55;8.43;;;1.33;;
55813;SDS011;65494;42.818;0.404;2023-08-07T02:31:21;8.45;;;1.67;;
55813;SDS011;65494;42.818;0.404;2023-08-07T02:33:47;7.68;;;1.40;;
55813;SDS011;65494;42.818;0.404;2023-08-07T02:36:13;7.30;;;1.42;;
55813;SDS011;65494;42.818;0.404;2023-08-07T02:38:39;5.07;;;1.52;;
55813;SDS011;65494;42.818;0.404;2023-08-07T02:41:05;6.18;;;1.45;;
55813;SDS011;65494;42.818;0.404;2023-08-07T02:43:31;6.43;;;1.42;;
55813;SDS011;65494;42.818;0.404;2023-08-07T02:45:59;6.18;;;1.30;;
55813;SDS011;65494;42.818;0.404;2023-08-07T02:48:25;8.65;;;1.45;;
55813;SDS011;65494;42.818;0.404;2023-08-07T02:50:51;4.85;;;1.55;;
55813;SDS011;65494;42.818;0.404;2023-08-07T02:53:19;6.03;;;1.40;;
55813;SDS011;65494;42.818;0.404;2023-08-07T02:55:45;4.60;;;1.13;;
55813;SDS011;65494;42.818;0.404;2023-08-07T02:58:11;6.63;;;1.48;;
55813;SDS011;65494;42.818;0.404;2023-08-07T03:00:37;5.65;;;1.20;;
55813;SDS011;65494;42.818;0.404;2023-08-07T03:03:03;5.97;;;1.27;;
55813;SDS011;65494;42.818;0.404;2023-08-07T03:05:29;6.07;;;2.08;;
55813;SDS011;65494;42.818;0.404;2023-08-07T03:07:55;5.85;;;1.27;;
55813;SDS011;65494;42.818;0.404;2023-08-07T03:10:21;8.65;;;1.65;;
55813;SDS011;65494;42.818;0.404;2023-08-07T03:12:48;8.15;;;1.60;;
55813;SDS011;65494;42.818;0.404;2023-08-07T03:15:14;6.65;;;1.67;;
55813;SDS011;65494;42.818;0.404;2023-08-07T03:17:40;6.38;;;1.45;;
55813;SDS011;65494;42.818;0.404;2023-08-07T03:20:06;7.85;;;1.88;;
55813;SDS011;65494;42.818;0.404;2023-08-07T03:22:32;7.68;;;1.65;;
55813;SDS011;65494;42.818;0.404;2023-08-07T03:24:58;4.95;;;1.13;;
55813;SDS011;65494;42.818;0.404;2023-08-07T03:27:24;7.07;;;1.38;;
55813;SDS011;65494;42.818;0.404;2023-08-07T03:29:50;7.45;;;1.40;;
55813;SDS011;65494;42.818;0.404;2023-08-07T03:32:16;5.78;;;1.27;;
55813;SDS011;65494;42.818;0.404;2023-08-07T03:34:43;7.57;;;1.30;;
55813;SDS011;65494;42.818;0.404;2023-08-07T03:37:09;6.18;;;1.48;;
55813;SDS011;65494;42.818;0.404;2023-08-07T03:39:35;5.00;;;1.30;;
55813;SDS011;65494;42.818;0.404;2023-08-07T03:42:01;9.98;;;1.63;;
55813;SDS011;65494;42.818;0.404;2023-08-07T03:44:27;11.85;;;1.40;;
55813;SDS011;65494;42.818;0.404;2023-08-07T03:46:53;9.45;;;1.77;;
55813;SDS011;65494;42.818;0.404;2023-08-07T03:49:21;8.05;;;2.47;;
55813;SDS011;65494;42.818;0.404;2023-08-07T03:51:48;7.65;;;1.27;;
55813;SDS011;65494;42.818;0.404;2023-08-07T03:54:14;12.07;;;1.88;;
55813;SDS011;65494;42.818;0.404;2023-08-07T03:56:40;7.85;;;2.05;;
55813;SDS011;65494;42.818;0.404;2023-08-07T03:59:06;8.43;;;1.67;;
55813;SDS011;65494;42.818;0.404;2023-08-07T04:01:32;8.13;;;2.00;;
55813;SDS011;65494;42.818;0.404;2023-08-07T04:03:58;6.25;;;1.50;;
55813;SDS011;65494;42.818;0.404;2023-08-07T04:06:24;10.02;;;1.65;;
55813;SDS011;65494;42.818;0.404;2023-08-07T04:08:52;8.07;;;1.60;;
55813;SDS011;65494;42.818;0.404;2023-08-07T04:11:18;7.63;;;1.67;;
55813;SDS011;65494;42.818;0.404;2023-08-07T04:13:44;8.27;;;1.40;;
55813;SDS011;65494;42.818;0.404;2023-08-07T04:16:10;7.07;;;1.33;;
55813;SDS011;65494;42.818;0.404;2023-08-07T04:18:36;9.13;;;1.70;;
55813;SDS011;65494;42.818;0.404;2023-08-07T04:21:02;5.47;;;1.98;;
55813;SDS011;65494;42.818;0.404;2023-08-07T04:23:28;11.27;;;1.92;;
55813;SDS011;65494;42.818;0.404;2023-08-07T04:25:56;10.48;;;1.40;;
55813;SDS011;65494;42.818;0.404;2023-08-07T04:28:23;8.60;;;1.55;;
55813;SDS011;65494;42.818;0.404;2023-08-07T04:30:50;3.45;;;1.42;;
55813;SDS011;65494;42.818;0.404;2023-08-07T04:33:16;7.75;;;1.48;;
55813;SDS011;65494;42.818;0.404;2023-08-07T04:35:42;8.77;;;1.30;;
55813;SDS011;65494;42.818;0.404;2023-08-07T04:38:08;5.95;;;1.42;;
55813;SDS011;65494;42.818;0.404;2023-08-07T04:40:34;6.38;;;1.60;;
55813;SDS011;65494;42.818;0.404;2023-08-07T04:43:00;4.80;;;1.40;;
55813;SDS011;65494;42.818;0.404;2023-08-07T04:45:27;7.32;;;1.50;;
55813;SDS011;65494;42.818;0.404;2023-08-07T04:47:53;6.78;;;1.40;;
55813;SDS011;65494;42.818;0.404;2023-08-07T04:50:19;7.95;;;2.03;;
55813;SDS011;65494;42.818;0.404;2023-08-07T04:52:45;12.52;;;1.75;;
55813;SDS011;65494;42.818;0.404;2023-08-07T04:55:11;5.93;;;1.70;;
55813;SDS011;65494;42.818;0.404;2023-08-07T04:57:37;8.07;;;1.35;;
55813;SDS011;65494;42.818;0.404;2023-08-07T05:00:03;6.25;;;2.13;;
55813;SDS011;65494;42.818;0.404;2023-08-07T05:02:29;7.82;;;2.00;;
55813;SDS011;65494;42.818;0.404;2023-08-07T05:04:56;7.78;;;1.63;;
55813;SDS011;65494;42.818;0.404;2023-08-07T05:07:22;10.75;;;2.03;;
55813;SDS011;65494;42.818;0.404;2023-08-07T05:09:48;8.43;;;1.45;;
55813;SDS011;65494;42.818;0.404;2023-08-07T05:12:15;7.60;;;1.50;;
55813;SDS011;65494;42.818;0.404;2023-08-07T05:14:41;5.28;;;1.30;;
55813;SDS011;65494;42.818;0.404;2023-08-07T05:17:07;7.43;;;2.28;;
55813;SDS011;65494;42.818;0.404;2023-08-07T05:19:33;5.40;;;1.60;;
55813;SDS011;65494;42.818;0.404;2023-08-07T05:22:00;5.70;;;1.33;;
55813;SDS011;65494;42.818;0.404;2023-08-07T05:24:26;5.70;;;1.75;;
55813;SDS011;65494;42.818;0.404;2023-08-07T05:26:52;5.25;;;1.65;;
55813;SDS011;65494;42.818;0.404;2023-08-07T05:29:18;8.60;;;1.70;;
55813;SDS011;65494;42.818;0.404;2023-08-07T05:31:44;5.50;;;1.50;;
55813;SDS011;65494;42.818;0.404;2023-08-07T05:34:10;6.18;;;1.60;;
55813;SDS011;65494;42.818;0.404;2023-08-07T05:36:36;7.15;;;1.70;;
55813;SDS011;65494;42.818;0.404;2023-08-07T05:39:03;4.00;;;1.30;;
55813;SDS011;65494;42.818;0.404;2023-08-07T05:41:29;3.00;;;1.30;;
55813;SDS011;65494;42.818;0.404;2023-08-07T05:43:55;3.47;;;1.48;;
55813;SDS011;65494;42.818;0.404;2023-08-07T05:46:21;7.90;;;1.67;;
55813;SDS011;65494;42.818;0.404;2023-08-07T05:48:47;6.75;;;1.40;;
55813;SDS011;65494;42.818;0.404;2023-08-07T05:51:13;4.38;;;1.27;;
55813;SDS011;65494;42.818;0.404;2023-08-07T05:53:39;5.22;;;1.23;;
55813;SDS011;65494;42.818;0.404;2023-08-07T05:56:05;9.05;;;1.60;;
55813;SDS011;65494;42.818;0.404;2023-08-07T05:58:31;3.78;;;1.38;;
55813;SDS011;65494;42.818;0.404;2023-08-07T06:00:57;8.65;;;2.10;;
55813;SDS011;65494;42.818;0.404;2023-08-07T06:03:23;6.00;;;1.67;;
55813;SDS011;65494;42.818;0.404;2023-08-07T06:05:49;4.13;;;1.27;;
55813;SDS011;65494;42.818;0.404;2023-08-07T06:08:15;4.70;;;1.58;;
55813;SDS011;65494;42.818;0.404;2023-08-07T06:10:41;4.07;;;1.50;;
55813;SDS011;65494;42.818;0.404;2023-08-07T06:13:08;4.32;;;1.30;;
55813;SDS011;65494;42.818;0.404;2023-08-07T06:15:34;3.33;;;1.30;;
55813;SDS011;65494;42.818;0.404;2023-08-07T06:18:00;5.25;;;1.48;;
55813;SDS011;65494;42.818;0.404;2023-08-07T06:20:26;4.15;;;1.30;;
55813;SDS011;65494;42.818;0.404;2023-08-07T06:22:52;4.38;;;1.50;;
55813;SDS011;65494;42.818;0.404;2023-08-07T06:25:18;4.88;;;1.48;;
55813;SDS011;65494;42.818;0.404;2023-08-07T06:27:44;10.25;;;2.55;;
55813;SDS011;65494;42.818;0.404;2023-08-07T06:30:10;8.02;;;3.08;;
55813;SDS011;65494;42.818;0.404;2023-08-07T06:32:37;12.25;;;2.90;;
55813;SDS011;65494;42.818;0.404;2023-08-07T06:35:03;5.97;;;2.42;;
55813;SDS011;65494;42.818;0.404;2023-08-07T06:37:29;6.75;;;1.90;;
55813;SDS011;65494;42.818;0.404;2023-08-07T06:39:56;5.50;;;1.38;;
55813;SDS011;65494;42.818;0.404;2023-08-07T06:42:22;9.75;;;2.15;;
55813;SDS011;65494;42.818;0.404;2023-08-07T06:44:48;6.68;;;1.80;;
55813;SDS011;65494;42.818;0.404;2023-08-07T06:47:14;8.02;;;2.10;;
55813;SDS011;65494;42.818;0.404;2023-08-07T06:49:40;8.32;;;2.78;;
55813;SDS011;65494;42.818;0.404;2023-08-07T06:52:06;10.45;;;2.10;;
55813;SDS011;65494;42.818;0.404;2023-08-07T06:54:32;7.53;;;1.52;;
55813;SDS011;65494;42.818;0.404;2023-08-07T06:56:58;7.45;;;1.38;;
55813;SDS011;65494;42.818;0.404;2023-08-07T06:59:24;6.13;;;1.50;;
55813;SDS011;65494;42.818;0.404;2023-08-07T07:01:51;5.45;;;1.40;;
55813;SDS011;65494;42.818;0.404;2023-08-07T07:04:17;5.88;;;1.38;;
55813;SDS011;65494;42.818;0.404;2023-08-07T07:06:43;7.32;;;1.58;;
55813;SDS011;65494;42.818;0.404;2023-08-07T07:09:09;6.65;;;1.25;;
55813;SDS011;65494;42.818;0.404;2023-08-07T07:11:35;5.85;;;1.23;;
55813;SDS011;65494;42.818;0.404;2023-08-07T07:14:02;7.32;;;1.55;;
55813;SDS011;65494;42.818;0.404;2023-08-07T07:16:29;5.82;;;1.45;;
55813;SDS011;65494;42.818;0.404;2023-08-07T07:18:55;7.35;;;1.42;;
55813;SDS011;65494;42.818;0.404;2023-08-07T07:21:23;7.10;;;1.33;;
55813;SDS011;65494;42.818;0.404;2023-08-07T07:23:49;5.43;;;1.40;;
55813;SDS011;65494;42.818;0.404;2023-08-07T07:26:15;6.28;;;1.30;;
55813;SDS011;65494;42.818;0.404;2023-08-07T07:28:41;5.90;;;1.17;;
55813;SDS011;65494;42.818;0.404;2023-08-07T07:31:07;5.50;;;1.38;;
55813;SDS011;65494;42.818;0.404;2023-08-07T07:33:36;4.22;;;1.35;;
55813;SDS011;65494;42.818;0.404;2023-08-07T07:36:04;6.43;;;1.40;;
55813;SDS011;65494;42.818;0.404;2023-08-07T07:38:31;3.97;;;1.00;;
55813;SDS011;65494;42.818;0.404;2023-08-07T07:40:57;4.80;;;1.00;;
55813;SDS011;65494;42.818;0.404;2023-08-07T07:43:23;6.72;;;1.20;;
55813;SDS011;65494;42.818;0.404;2023-08-07T07:45:49;4.45;;;1.20;;
55813;SDS011;65494;42.818;0.404;2023-08-07T07:48:15;4.47;;;1.00;;
55813;SDS011;65494;42.818;0.404;2023-08-07T07:50:41;5.05;;;1.10;;
55813;SDS011;65494;42.818;0.404;2023-08-07T07:53:08;3.20;;;1.10;;
55813;SDS011;65494;42.818;0.404;2023-08-07T07:55:34;3.40;;;1.00;;
55813;SDS011;65494;42.818;0.404;2023-08-07T07:58:02;2.63;;;1.10;;
55813;SDS011;65494;42.818;0.404;2023-08-07T08:00:31;9.18;;;1.50;;
55813;SDS011;65494;42.818;0.404;2023-08-07T08:02:57;3.10;;;1.10;;
55813;SDS011;65494;42.818;0.404;2023-08-07T08:05:24;4.50;;;1.10;;
55813;SDS011;65494;42.818;0.404;2023-08-07T08:07:50;3.60;;;1.00;;
55813;SDS011;65494;42.818;0.404;2023-08-07T08:10:17;3.88;;;0.80;;
55813;SDS011;65494;42.818;0.404;2023-08-07T08:12:43;2.72;;;0.98;;
55813;SDS011;65494;42.818;0.404;2023-08-07T08:15:09;3.28;;;0.85;;
55813;SDS011;65494;42.818;0.404;2023-08-07T08:17:36;2.88;;;0.75;;
55813;SDS011;65494;42.818;0.404;2023-08-07T08:20:02;3.53;;;1.05;;
55813;SDS011;65494;42.818;0.404;2023-08-07T08:22:29;5.85;;;1.00;;
55813;SDS011;65494;42.818;0.404;2023-08-07T08:24:55;4.97;;;1.00;;
55813;SDS011;65494;42.818;0.404;2023-08-07T08:27:21;3.50;;;0.70;;
55813;SDS011;65494;42.818;0.404;2023-08-07T08:29:47;2.63;;;0.95;;
55813;SDS011;65494;42.818;0.404;2023-08-07T08:32:14;3.05;;;1.02;;
55813;SDS011;65494;42.818;0.404;2023-08-07T08:34:40;2.78;;;0.80;;
55813;SDS011;65494;42.818;0.404;2023-08-07T08:37:06;2.53;;;0.82;;
55813;SDS011;65494;42.818;0.404;2023-08-07T08:39:32;2.95;;;1.15;;
55813;SDS011;65494;42.818;0.404;2023-08-07T08:41:59;2.25;;;0.90;;
55813;SDS011;65494;42.818;0.404;2023-08-07T08:44:25;2.45;;;1.02;;
55813;SDS011;65494;42.818;0.404;2023-08-07T08:46:52;3.08;;;1.10;;
55813;SDS011;65494;42.818;0.404;2023-08-07T08:49:22;3.60;;;1.15;;
55813;SDS011;65494;42.818;0.404;2023-08-07T08:51:49;3.55;;;0.90;;
55813;SDS011;65494;42.818;0.404;2023-08-07T08:54:16;4.53;;;0.93;;
55813;SDS011;65494;42.818;0.404;2023-08-07T08:56:42;4.20;;;1.02;;
55813;SDS011;65494;42.818;0.404;2023-08-07T08:59:08;4.30;;;1.10;;
55813;SDS011;65494;42.818;0.404;2023-08-07T09:01:37;5.20;;;1.00;;
55813;SDS011;65494;42.818;0.404;2023-08-07T09:04:04;4.60;;;1.00;;
55813;SDS011;65494;42.818;0.404;2023-08-07T09:06:31;3.75;;;1.00;;
55813;SDS011;65494;42.818;0.404;2023-08-07T09:08:58;2.47;;;1.00;;
55813;SDS011;65494;42.818;0.404;2023-08-07T09:11:25;3.25;;;1.20;;
55813;SDS011;65494;42.818;0.404;2023-08-07T09:13:52;3.53;;;1.00;;
55813;SDS011;65494;42.818;0.404;2023-08-07T09:16:21;3.92;;;1.20;;
55813;SDS011;65494;42.818;0.404;2023-08-07T09:18:50;2.75;;;0.80;;
55813;SDS011;65494;42.818;0.404;2023-08-07T09:21:19;3.92;;;1.25;;
55813;SDS011;65494;42.818;0.404;2023-08-07T09:23:48;3.05;;;1.17;;
55813;SDS011;65494;42.818;0.404;2023-08-07T09:26:15;6.32;;;1.33;;
55813;SDS011;65494;42.818;0.404;2023-08-07T09:28:47;2.42;;;0.80;;
55813;SDS011;65494;42.818;0.404;2023-08-07T09:31:14;3.10;;;1.10;;
55813;SDS011;65494;42.818;0.404;2023-08-07T09:33:40;3.15;;;0.90;;
55813;SDS011;65494;42.818;0.404;2023-08-07T09:36:06;3.42;;;1.00;;
55813;SDS011;65494;42.818;0.404;2023-08-07T09:38:33;2.55;;;1.08;;
55813;SDS011;65494;42.818;0.404;2023-08-07T09:40:59;2.83;;;0.90;;
55813;SDS011;65494;42.818;0.404;2023-08-07T09:43:26;3.80;;;1.13;;
55813;SDS011;65494;42.818;0.404;2023-08-07T09:45:52;3.63;;;0.98;;
55813;SDS011;65494;42.818;0.404;2023-08-07T09:48:24;2.65;;;1.10;;
55813;SDS011;65494;42.818;0.404;2023-08-07T09:50:52;4.50;;;1.20;;
55813;SDS011;65494;42.818;0.404;2023-08-07T09:56:35;2.35;;;0.80;;
55813;SDS011;65494;42.818;0.404;2023-08-07T10:05:21;3.15;;;1.00;;
55813;SDS011;65494;42.818;0.404;2023-08-07T10:07:50;3.17;;;0.93;;
55813;SDS011;65494;42.818;0.404;2023-08-07T10:10:19;1.95;;;0.82;;
55813;SDS011;65494;42.818;0.404;2023-08-07T10:13:13;3.78;;;1.10;;
55813;SDS011;65494;42.818;0.404;2023-08-07T10:22:23;8.50;;;1.10;;
55813;SDS011;65494;42.818;0.404;2023-08-07T10:24:56;1.80;;;0.77;;
55813;SDS011;65494;42.818;0.404;2023-08-07T10:28:03;2.45;;;0.93;;
55813;SDS011;65494;42.818;0.404;2023-08-07T10:40:04;2.72;;;0.98;;
55813;SDS011;65494;42.818;0.404;2023-08-07T11:01:15;10.13;;;1.20;;
55813;SDS011;65494;42.818;0.404;2023-08-07T11:03:44;5.07;;;2.55;;
55813;SDS011;65494;42.818;0.404;2023-08-07T11:06:11;4.20;;;1.40;;
55813;SDS011;65494;42.818;0.404;2023-08-07T11:08:40;7.40;;;1.90;;
55813;SDS011;65494;42.818;0.404;2023-08-07T11:11:06;2.58;;;1.10;;
55813;SDS011;65494;42.818;0.404;2023-08-07T11:13:33;2.53;;;1.20;;
55813;SDS011;65494;42.818;0.404;2023-08-07T11:15:59;2.47;;;1.00;;
55813;SDS011;65494;42.818;0.404;2023-08-07T11:18:26;2.00;;;0.90;;
55813;SDS011;65494;42.818;0.404;2023-08-07T11:20:53;7.43;;;1.10;;
55813;SDS011;65494;42.818;0.404;2023-08-07T11:23:23;3.28;;;1.40;;
55813;SDS011;65494;42.818;0.404;2023-08-07T11:25:49;4.35;;;1.50;;
55813;SDS011;65494;42.818;0.404;2023-08-07T11:28:19;5.90;;;2.55;;
55813;SDS011;65494;42.818;0.404;2023-08-07T11:30:46;7.05;;;2.53;;
55813;SDS011;65494;42.818;0.404;2023-08-07T11:33:14;6.55;;;3.05;;
55813;SDS011;65494;42.818;0.404;2023-08-07T11:35:41;4.30;;;2.60;;
55813;SDS011;65494;42.818;0.404;2023-08-07T11:38:07;5.68;;;1.50;;
55813;SDS011;65494;42.818;0.404;2023-08-07T11:40:34;2.95;;;1.20;;
55813;SDS011;65494;42.818;0.404;2023-08-07T11:43:00;3.10;;;1.30;;
55813;SDS011;65494;42.818;0.404;2023-08-07T11:45:27;7.25;;;1.17;;
55813;SDS011;65494;42.818;0.404;2023-08-07T11:47:53;3.25;;;1.05;;
55813;SDS011;65494;42.818;0.404;2023-08-07T11:50:21;2.20;;;1.00;;
55813;SDS011;65494;42.818;0.404;2023-08-07T11:52:47;5.20;;;1.02;;
55813;SDS011;65494;42.818;0.404;2023-08-07T11:55:14;2.90;;;1.25;;
55813;SDS011;65494;42.818;0.404;2023-08-07T11:57:40;6.00;;;0.95;;
55813;SDS011;65494;42.818;0.404;2023-08-07T12:00:08;7.88;;;1.10;;
55813;SDS011;65494;42.818;0.404;2023-08-07T12:02:41;6.60;;;1.17;;
55813;SDS011;65494;42.818;0.404;2023-08-07T12:05:08;4.85;;;1.10;;
55813;SDS011;65494;42.818;0.404;2023-08-07T12:07:36;3.20;;;1.25;;
55813;SDS011;65494;42.818;0.404;2023-08-07T12:10:09;2.67;;;0.93;;
55813;SDS011;65494;42.818;0.404;2023-08-07T12:12:38;2.42;;;0.95;;
55813;SDS011;65494;42.818;0.404;2023-08-07T12:15:08;3.28;;;0.95;;
55813;SDS011;65494;42.818;0.404;2023-08-07T12:17:35;2.33;;;0.75;;
55813;SDS011;65494;42.818;0.404;2023-08-07T12:20:03;4.57;;;1.15;;
55813;SDS011;65494;42.818;0.404;2023-08-07T12:22:31;2.67;;;0.93;;
55813;SDS011;65494;42.818;0.404;2023-08-07T12:24:57;4.28;;;1.10;;
55813;SDS011;65494;42.818;0.404;2023-08-07T12:27:23;4.53;;;0.95;;
55813;SDS011;65494;42.818;0.404;2023-08-07T12:29:49;2.78;;;1.00;;
55813;SDS011;65494;42.818;0.404;2023-08-07T12:32:15;4.10;;;1.17;;
55813;SDS011;65494;42.818;0.404;2023-08-07T12:34:41;3.95;;;1.10;;
55813;SDS011;65494;42.818;0.404;2023-08-07T12:37:07;3.05;;;1.00;;
55813;SDS011;65494;42.818;0.404;2023-08-07T12:39:34;2.45;;;1.00;;
55813;SDS011;65494;42.818;0.404;2023-08-07T12:42:00;3.40;;;1.05;;
55813;SDS011;65494;42.818;0.404;2023-08-07T12:44:26;2.42;;;1.30;;
55813;SDS011;65494;42.818;0.404;2023-08-07T12:46:52;2.80;;;0.90;;
55813;SDS011;65494;42.818;0.404;2023-08-07T12:49:18;3.55;;;1.40;;
55813;SDS011;65494;42.818;0.404;2023-08-07T12:51:44;3.55;;;1.17;;
55813;SDS011;65494;42.818;0.404;2023-08-07T12:54:10;2.22;;;1.10;;
55813;SDS011;65494;42.818;0.404;2023-08-07T12:56:36;2.58;;;0.98;;
55813;SDS011;65494;42.818;0.404;2023-08-07T12:59:02;2.72;;;1.17;;
55813;SDS011;65494;42.818;0.404;2023-08-07T13:01:29;3.00;;;1.10;;
55813;SDS011;65494;42.818;0.404;2023-08-07T13:03:55;3.63;;;0.90;;
55813;SDS011;65494;42.818;0.404;2023-08-07T13:06:21;3.78;;;0.90;;
55813;SDS011;65494;42.818;0.404;2023-08-07T13:08:47;4.55;;;1.33;;
55813;SDS011;65494;42.818;0.404;2023-08-07T13:11:13;4.35;;;1.00;;
55813;SDS011;65494;42.818;0.404;2023-08-07T13:13:39;3.63;;;1.10;;
55813;SDS011;65494;42.818;0.404;2023-08-07T13:16:05;3.80;;;1.20;;
55813;SDS011;65494;42.818;0.404;2023-08-07T13:18:32;4.60;;;1.30;;
55813;SDS011;65494;42.818;0.404;2023-08-07T13:20:58;5.68;;;1.33;;
55813;SDS011;65494;42.818;0.404;2023-08-07T13:23:24;4.57;;;1.10;;
55813;SDS011;65494;42.818;0.404;2023-08-07T13:25:50;4.10;;;1.00;;
55813;SDS011;65494;42.818;0.404;2023-08-07T13:28:16;3.38;;;1.35;;
55813;SDS011;65494;42.818;0.404;2023-08-07T13:30:43;4.45;;;1.13;;
55813;SDS011;65494;42.818;0.404;2023-08-07T13:33:09;8.07;;;1.50;;
55813;SDS011;65494;42.818;0.404;2023-08-07T13:35:35;2.83;;;0.95;;
55813;SDS011;65494;42.818;0.404;2023-08-07T13:38:02;4.78;;;1.23;;
55813;SDS011;65494;42.818;0.404;2023-08-07T13:40:30;4.95;;;1.10;;
55813;SDS011;65494;42.818;0.404;2023-08-07T13:42:57;4.53;;;1.30;;
55813;SDS011;65494;42.818;0.404;2023-08-07T13:45:24;3.28;;;1.00;;
55813;SDS011;65494;42.818;0.404;2023-08-07T13:47:50;3.08;;;1.27;;
55813;SDS011;65494;42.818;0.404;2023-08-07T13:50:16;5.68;;;1.33;;
55813;SDS011;65494;42.818;0.404;2023-08-07T13:52:42;4.32;;;1.05;;
55813;SDS011;65494;42.818;0.404;2023-08-07T13:55:08;3.53;;;1.08;;
55813;SDS011;65494;42.818;0.404;2023-08-07T13:57:34;3.05;;;1.02;;
55813;SDS011;65494;42.818;0.404;2023-08-07T14:00:00;3.70;;;1.10;;
55813;SDS011;65494;42.818;0.404;2023-08-07T14:02:27;4.18;;;1.20;;
55813;SDS011;65494;42.818;0.404;2023-08-07T14:04:55;2.85;;;1.10;;
55813;SDS011;65494;42.818;0.404;2023-08-07T14:07:22;4.88;;;1.10;;
55813;SDS011;65494;42.818;0.404;2023-08-07T14:09:48;3.45;;;1.00;;
55813;SDS011;65494;42.818;0.404;2023-08-07T14:12:14;3.70;;;1.17;;
55813;SDS011;65494;42.818;0.404;2023-08-07T14:14:40;3.03;;;1.00;;
55813;SDS011;65494;42.818;0.404;2023-08-07T14:17:06;4.00;;;1.17;;
55813;SDS011;65494;42.818;0.404;2023-08-07T14:19:32;4.53;;;1.40;;
55813;SDS011;65494;42.818;0.404;2023-08-07T14:21:58;3.20;;;1.08;;
55813;SDS011;65494;42.818;0.404;2023-08-07T14:24:24;4.43;;;1.10;;
55813;SDS011;65494;42.818;0.404;2023-08-07T14:26:51;2.58;;;1.00;;
55813;SDS011;65494;42.818;0.404;2023-08-07T14:29:17;4.97;;;1.15;;
55813;SDS011;65494;42.818;0.404;2023-08-07T14:31:43;3.30;;;1.15;;
55813;SDS011;65494;42.818;0.404;2023-08-07T14:34:09;2.88;;;1.10;;
55813;SDS011;65494;42.818;0.404;2023-08-07T14:36:35;5.97;;;1.25;;
55813;SDS011;65494;42.818;0.404;2023-08-07T14:39:02;4.93;;;1.20;;
55813;SDS011;65494;42.818;0.404;2023-08-07T14:41:28;5.65;;;1.50;;
55813;SDS011;65494;42.818;0.404;2023-08-07T14:43:55;5.35;;;1.23;;
55813;SDS011;65494;42.818;0.404;2023-08-07T14:46:21;6.85;;;1.65;;
55813;SDS011;65494;42.818;0.404;2023-08-07T14:48:48;5.55;;;1.55;;
55813;SDS011;65494;42.818;0.404;2023-08-07T14:51:14;4.65;;;1.13;;
55813;SDS011;65494;42.818;0.404;2023-08-07T14:53:40;4.22;;;1.23;;
55813;SDS011;65494;42.818;0.404;2023-08-07T14:56:07;6.10;;;1.30;;
55813;SDS011;65494;42.818;0.404;2023-08-07T14:58:33;4.35;;;1.20;;
55813;SDS011;65494;42.818;0.404;2023-08-07T15:00:59;3.45;;;0.90;;
55813;SDS011;65494;42.818;0.404;2023-08-07T15:03:25;4.28;;;1.30;;
55813;SDS011;65494;42.818;0.404;2023-08-07T15:05:52;4.18;;;1.90;;
55813;SDS011;65494;42.818;0.404;2023-08-07T15:08:18;6.65;;;1.38;;
55813;SDS011;65494;42.818;0.404;2023-08-07T15:10:44;3.47;;;1.20;;
55813;SDS011;65494;42.818;0.404;2023-08-07T15:13:10;6.03;;;1.45;;
55813;SDS011;65494;42.818;0.404;2023-08-07T15:15:36;2.53;;;0.98;;
55813;SDS011;65494;42.818;0.404;2023-08-07T15:18:02;2.78;;;1.08;;
55813;SDS011;65494;42.818;0.404;2023-08-07T15:20:30;5.05;;;1.30;;
55813;SDS011;65494;42.818;0.404;2023-08-07T15:22:56;5.30;;;1.50;;
55813;SDS011;65494;42.818;0.404;2023-08-07T15:25:22;3.72;;;1.15;;
55813;SDS011;65494;42.818;0.404;2023-08-07T15:27:48;7.90;;;1.30;;
55813;SDS011;65494;42.818;0.404;2023-08-07T15:30:14;4.32;;;1.35;;
55813;SDS011;65494;42.818;0.404;2023-08-07T15:32:40;3.75;;;1.45;;
55813;SDS011;65494;42.818;0.404;2023-08-07T15:35:07;3.42;;;1.30;;
55813;SDS011;65494;42.818;0.404;2023-08-07T15:37:33;6.88;;;2.15;;